sensor_id;sensor_type;location;lat;lon;timestamp;P1;durP1;ratioP1;P2;durP2;ratioP2
52816;SDS011;38687;43.330;21.924;2024-01-16T00:01:42;20.83;;;13.02;;
52816;SDS011;38687;43.330;21.924;2024-01-16T00:04:08;21.10;;;12.40;;
52816;SDS011;38687;43.330;21.924;2024-01-16T00:06:33;23.23;;;10.80;;
52816;SDS011;38687;43.330;21.924;2024-01-16T00:08:59;17.98;;;11.90;;
52816;SDS011;38687;43.330;21.924;2024-01-16T00:11:24;26.70;;;16.63;;
52816;SDS011;38687;43.330;21.924;2024-01-16T00:13:49;31.40;;;19.50;;
52816;SDS011;38687;43.330;21.924;2024-01-16T00:16:15;45.30;;;30.67;;
52816;SDS011;38687;43.330;21.924;2024-01-16T00:18:40;30.70;;;19.70;;
52816;SDS011;38687;43.330;21.924;2024-01-16T00:21:06;29.02;;;15.80;;
52816;SDS011;38687;43.330;21.924;2024-01-16T00:23:31;27.13;;;16.17;;
52816;SDS011;38687;43.330;21.924;2024-01-16T00:25:57;19.42;;;11.38;;
52816;SDS011;38687;43.330;21.924;2024-01-16T00:28:22;20.05;;;11.95;;
52816;SDS011;38687;43.330;21.924;2024-01-16T00:30:51;23.20;;;11.75;;
52816;SDS011;38687;43.330;21.924;2024-01-16T00:33:16;24.15;;;14.02;;
52816;SDS011;38687;43.330;21.924;2024-01-16T00:35:42;18.42;;;12.95;;
52816;SDS011;38687;43.330;21.924;2024-01-16T00:38:07;12.48;;;7.70;;
52816;SDS011;38687;43.330;21.924;2024-01-16T00:40:33;17.25;;;11.88;;
52816;SDS011;38687;43.330;21.924;2024-01-16T00:42:58;15.38;;;9.15;;
52816;SDS011;38687;43.330;21.924;2024-01-16T00:45:24;7.63;;;4.53;;
52816;SDS011;38687;43.330;21.924;2024-01-16T00:47:49;3.85;;;3.47;;
52816;SDS011;38687;43.330;21.924;2024-01-16T00:50:15;8.75;;;3.90;;
52816;SDS011;38687;43.330;21.924;2024-01-16T00:52:40;7.05;;;3.53;;
52816;SDS011;38687;43.330;21.924;2024-01-16T00:55:05;3.45;;;3.15;;
52816;SDS011;38687;43.330;21.924;2024-01-16T00:57:31;2.45;;;2.25;;
52816;SDS011;38687;43.330;21.924;2024-01-16T00:59:56;2.65;;;2.10;;
52816;SDS011;38687;43.330;21.924;2024-01-16T01:02:22;2.60;;;2.08;;
52816;SDS011;38687;43.330;21.924;2024-01-16T01:04:47;3.42;;;2.70;;
52816;SDS011;38687;43.330;21.924;2024-01-16T01:07:13;2.70;;;2.42;;
52816;SDS011;38687;43.330;21.924;2024-01-16T01:09:40;3.72;;;2.33;;
52816;SDS011;38687;43.330;21.924;2024-01-16T01:12:05;2.22;;;1.73;;
52816;SDS011;38687;43.330;21.924;2024-01-16T01:14:31;2.17;;;1.92;;
52816;SDS011;38687;43.330;21.924;2024-01-16T01:16:57;1.60;;;1.25;;
52816;SDS011;38687;43.330;21.924;2024-01-16T01:19:22;2.05;;;1.88;;
52816;SDS011;38687;43.330;21.924;2024-01-16T01:21:48;2.85;;;1.95;;
52816;SDS011;38687;43.330;21.924;2024-01-16T01:24:14;3.92;;;2.20;;
52816;SDS011;38687;43.330;21.924;2024-01-16T01:26:42;1.13;;;1.02;;
52816;SDS011;38687;43.330;21.924;2024-01-16T01:29:08;2.35;;;1.38;;
52816;SDS011;38687;43.330;21.924;2024-01-16T01:31:34;1.92;;;1.70;;
52816;SDS011;38687;43.330;21.924;2024-01-16T01:33:59;1.50;;;1.20;;
52816;SDS011;38687;43.330;21.924;2024-01-16T01:36:24;1.40;;;1.30;;
52816;SDS011;38687;43.330;21.924;2024-01-16T01:38:50;1.98;;;0.85;;
52816;SDS011;38687;43.330;21.924;2024-01-16T01:41:15;1.30;;;1.20;;
52816;SDS011;38687;43.330;21.924;2024-01-16T01:43:41;0.85;;;0.85;;
52816;SDS011;38687;43.330;21.924;2024-01-16T01:46:12;0.80;;;0.80;;
52816;SDS011;38687;43.330;21.924;2024-01-16T01:48:42;0.70;;;0.70;;
52816;SDS011;38687;43.330;21.924;2024-01-16T01:51:08;1.10;;;1.05;;
52816;SDS011;38687;43.330;21.924;2024-01-16T01:53:35;1.90;;;1.13;;
52816;SDS011;38687;43.330;21.924;2024-01-16T01:56:03;3.88;;;1.42;;
52816;SDS011;38687;43.330;21.924;2024-01-16T01:58:31;1.77;;;1.23;;
52816;SDS011;38687;43.330;21.924;2024-01-16T02:00:57;0.98;;;0.90;;
52816;SDS011;38687;43.330;21.924;2024-01-16T02:03:23;1.65;;;1.13;;
52816;SDS011;38687;43.330;21.924;2024-01-16T02:05:51;1.15;;;1.15;;
52816;SDS011;38687;43.330;21.924;2024-01-16T02:08:17;2.30;;;1.17;;
52816;SDS011;38687;43.330;21.924;2024-01-16T02:10:43;2.53;;;1.65;;
52816;SDS011;38687;43.330;21.924;2024-01-16T02:13:11;2.53;;;1.23;;
52816;SDS011;38687;43.330;21.924;2024-01-16T02:15:36;0.80;;;0.80;;
52816;SDS011;38687;43.330;21.924;2024-01-16T02:18:04;3.08;;;1.27;;
52816;SDS011;38687;43.330;21.924;2024-01-16T02:20:30;1.17;;;1.08;;
52816;SDS011;38687;43.330;21.924;2024-01-16T02:22:56;1.30;;;1.20;;
52816;SDS011;38687;43.330;21.924;2024-01-16T02:25:25;3.75;;;2.00;;
52816;SDS011;38687;43.330;21.924;2024-01-16T02:27:51;3.00;;;1.42;;
52816;SDS011;38687;43.330;21.924;2024-01-16T02:30:16;4.18;;;1.90;;
52816;SDS011;38687;43.330;21.924;2024-01-16T02:32:42;4.13;;;2.53;;
52816;SDS011;38687;43.330;21.924;2024-01-16T02:35:07;8.15;;;4.10;;
52816;SDS011;38687;43.330;21.924;2024-01-16T02:37:34;1.05;;;0.95;;
52816;SDS011;38687;43.330;21.924;2024-01-16T02:40:00;4.90;;;2.83;;
52816;SDS011;38687;43.330;21.924;2024-01-16T02:42:30;3.05;;;1.73;;
52816;SDS011;38687;43.330;21.924;2024-01-16T02:44:56;2.38;;;1.50;;
52816;SDS011;38687;43.330;21.924;2024-01-16T02:47:21;5.60;;;2.40;;
52816;SDS011;38687;43.330;21.924;2024-01-16T02:49:47;15.40;;;4.78;;
52816;SDS011;38687;43.330;21.924;2024-01-16T02:52:12;1.20;;;1.10;;
52816;SDS011;38687;43.330;21.924;2024-01-16T02:54:38;4.93;;;2.72;;
52816;SDS011;38687;43.330;21.924;2024-01-16T02:57:04;3.15;;;1.60;;
52816;SDS011;38687;43.330;21.924;2024-01-16T02:59:30;1.40;;;0.95;;
52816;SDS011;38687;43.330;21.924;2024-01-16T03:01:56;1.48;;;1.38;;
52816;SDS011;38687;43.330;21.924;2024-01-16T03:04:21;3.13;;;2.03;;
52816;SDS011;38687;43.330;21.924;2024-01-16T03:06:47;3.97;;;1.88;;
52816;SDS011;38687;43.330;21.924;2024-01-16T03:09:12;3.25;;;1.13;;
52816;SDS011;38687;43.330;21.924;2024-01-16T03:11:37;3.40;;;1.77;;
52816;SDS011;38687;43.330;21.924;2024-01-16T03:14:03;1.42;;;1.33;;
52816;SDS011;38687;43.330;21.924;2024-01-16T03:16:29;4.47;;;2.55;;
52816;SDS011;38687;43.330;21.924;2024-01-16T03:18:55;4.88;;;1.40;;
52816;SDS011;38687;43.330;21.924;2024-01-16T03:21:21;2.17;;;1.33;;
52816;SDS011;38687;43.330;21.924;2024-01-16T03:23:46;7.47;;;2.40;;
52816;SDS011;38687;43.330;21.924;2024-01-16T03:26:12;2.30;;;1.25;;
52816;SDS011;38687;43.330;21.924;2024-01-16T03:28:39;2.90;;;1.42;;
52816;SDS011;38687;43.330;21.924;2024-01-16T03:31:04;4.22;;;2.22;;
52816;SDS011;38687;43.330;21.924;2024-01-16T03:33:36;5.10;;;2.72;;
52816;SDS011;38687;43.330;21.924;2024-01-16T03:36:06;1.52;;;1.42;;
52816;SDS011;38687;43.330;21.924;2024-01-16T03:38:39;2.08;;;1.98;;
52816;SDS011;38687;43.330;21.924;2024-01-16T03:41:05;1.80;;;1.70;;
52816;SDS011;38687;43.330;21.924;2024-01-16T03:43:35;1.45;;;1.30;;
52816;SDS011;38687;43.330;21.924;2024-01-16T03:46:00;3.50;;;2.83;;
52816;SDS011;38687;43.330;21.924;2024-01-16T03:48:26;2.08;;;1.98;;
52816;SDS011;38687;43.330;21.924;2024-01-16T03:50:51;2.42;;;2.22;;
52816;SDS011;38687;43.330;21.924;2024-01-16T03:53:18;9.23;;;1.70;;
52816;SDS011;38687;43.330;21.924;2024-01-16T03:55:47;3.45;;;1.75;;
52816;SDS011;38687;43.330;21.924;2024-01-16T03:58:12;2.72;;;1.95;;
52816;SDS011;38687;43.330;21.924;2024-01-16T04:00:38;2.53;;;1.65;;
52816;SDS011;38687;43.330;21.924;2024-01-16T04:03:09;3.50;;;2.40;;
52816;SDS011;38687;43.330;21.924;2024-01-16T04:05:35;2.10;;;1.70;;
52816;SDS011;38687;43.330;21.924;2024-01-16T04:08:03;3.30;;;2.15;;
52816;SDS011;38687;43.330;21.924;2024-01-16T04:10:29;3.35;;;2.63;;
52816;SDS011;38687;43.330;21.924;2024-01-16T04:12:54;2.05;;;1.92;;
52816;SDS011;38687;43.330;21.924;2024-01-16T04:15:19;5.20;;;2.80;;
52816;SDS011;38687;43.330;21.924;2024-01-16T04:17:45;4.53;;;3.25;;
52816;SDS011;38687;43.330;21.924;2024-01-16T04:20:13;2.97;;;2.50;;
52816;SDS011;38687;43.330;21.924;2024-01-16T04:22:39;23.17;;;8.98;;
52816;SDS011;38687;43.330;21.924;2024-01-16T04:25:04;27.02;;;12.00;;
52816;SDS011;38687;43.330;21.924;2024-01-16T04:27:31;17.83;;;6.07;;
52816;SDS011;38687;43.330;21.924;2024-01-16T04:29:58;11.70;;;5.40;;
52816;SDS011;38687;43.330;21.924;2024-01-16T04:32:23;25.17;;;6.38;;
52816;SDS011;38687;43.330;21.924;2024-01-16T04:34:49;10.15;;;4.22;;
52816;SDS011;38687;43.330;21.924;2024-01-16T04:37:14;5.60;;;2.83;;
52816;SDS011;38687;43.330;21.924;2024-01-16T04:39:40;13.80;;;5.88;;
52816;SDS011;38687;43.330;21.924;2024-01-16T04:42:05;3.58;;;2.55;;
52816;SDS011;38687;43.330;21.924;2024-01-16T04:44:30;6.45;;;3.38;;
52816;SDS011;38687;43.330;21.924;2024-01-16T04:46:56;5.50;;;3.72;;
52816;SDS011;38687;43.330;21.924;2024-01-16T04:49:21;4.07;;;2.25;;
52816;SDS011;38687;43.330;21.924;2024-01-16T04:51:47;3.05;;;2.75;;
52816;SDS011;38687;43.330;21.924;2024-01-16T04:54:15;2.13;;;1.80;;
52816;SDS011;38687;43.330;21.924;2024-01-16T04:56:41;2.17;;;1.58;;
52816;SDS011;38687;43.330;21.924;2024-01-16T04:59:06;1.33;;;1.23;;
52816;SDS011;38687;43.330;21.924;2024-01-16T05:01:32;3.38;;;2.50;;
52816;SDS011;38687;43.330;21.924;2024-01-16T05:03:57;1.75;;;1.65;;
52816;SDS011;38687;43.330;21.924;2024-01-16T05:06:28;2.15;;;1.42;;
52816;SDS011;38687;43.330;21.924;2024-01-16T05:08:55;4.55;;;2.50;;
52816;SDS011;38687;43.330;21.924;2024-01-16T05:11:20;1.65;;;1.35;;
52816;SDS011;38687;43.330;21.924;2024-01-16T05:13:46;2.80;;;2.42;;
52816;SDS011;38687;43.330;21.924;2024-01-16T05:16:12;5.72;;;2.05;;
52816;SDS011;38687;43.330;21.924;2024-01-16T05:18:41;4.13;;;2.30;;
52816;SDS011;38687;43.330;21.924;2024-01-16T05:21:07;2.60;;;1.95;;
52816;SDS011;38687;43.330;21.924;2024-01-16T05:23:32;9.40;;;4.43;;
52816;SDS011;38687;43.330;21.924;2024-01-16T05:25:57;7.43;;;3.92;;
52816;SDS011;38687;43.330;21.924;2024-01-16T05:28:23;4.25;;;2.22;;
52816;SDS011;38687;43.330;21.924;2024-01-16T05:30:49;5.15;;;2.63;;
52816;SDS011;38687;43.330;21.924;2024-01-16T05:33:14;5.25;;;3.63;;
52816;SDS011;38687;43.330;21.924;2024-01-16T05:35:39;7.95;;;3.38;;
52816;SDS011;38687;43.330;21.924;2024-01-16T05:38:05;6.40;;;3.38;;
52816;SDS011;38687;43.330;21.924;2024-01-16T05:40:31;3.67;;;2.60;;
52816;SDS011;38687;43.330;21.924;2024-01-16T05:42:57;3.25;;;3.03;;
52816;SDS011;38687;43.330;21.924;2024-01-16T05:45:22;2.65;;;2.35;;
52816;SDS011;38687;43.330;21.924;2024-01-16T05:47:48;3.97;;;1.63;;
52816;SDS011;38687;43.330;21.924;2024-01-16T05:50:13;4.45;;;2.88;;
52816;SDS011;38687;43.330;21.924;2024-01-16T05:52:44;3.17;;;1.60;;
52816;SDS011;38687;43.330;21.924;2024-01-16T05:55:10;6.18;;;2.70;;
52816;SDS011;38687;43.330;21.924;2024-01-16T05:57:36;1.83;;;1.73;;
52816;SDS011;38687;43.330;21.924;2024-01-16T06:00:02;4.55;;;2.60;;
52816;SDS011;38687;43.330;21.924;2024-01-16T06:02:29;4.18;;;2.13;;
52816;SDS011;38687;43.330;21.924;2024-01-16T06:04:54;2.33;;;2.13;;
52816;SDS011;38687;43.330;21.924;2024-01-16T06:07:20;1.98;;;1.30;;
52816;SDS011;38687;43.330;21.924;2024-01-16T06:09:45;11.10;;;5.85;;
52816;SDS011;38687;43.330;21.924;2024-01-16T06:12:11;21.77;;;7.60;;
52816;SDS011;38687;43.330;21.924;2024-01-16T06:14:37;10.90;;;5.22;;
52816;SDS011;38687;43.330;21.924;2024-01-16T06:17:02;7.40;;;2.97;;
52816;SDS011;38687;43.330;21.924;2024-01-16T06:19:32;10.68;;;4.95;;
52816;SDS011;38687;43.330;21.924;2024-01-16T06:21:58;4.53;;;3.63;;
52816;SDS011;38687;43.330;21.924;2024-01-16T06:24:24;6.28;;;3.03;;
52816;SDS011;38687;43.330;21.924;2024-01-16T06:26:49;7.43;;;4.10;;
52816;SDS011;38687;43.330;21.924;2024-01-16T06:29:15;5.60;;;3.40;;
52816;SDS011;38687;43.330;21.924;2024-01-16T06:31:40;3.38;;;2.72;;
52816;SDS011;38687;43.330;21.924;2024-01-16T06:34:05;5.60;;;2.55;;
52816;SDS011;38687;43.330;21.924;2024-01-16T06:36:31;14.40;;;6.25;;
52816;SDS011;38687;43.330;21.924;2024-01-16T06:38:56;15.52;;;6.10;;
52816;SDS011;38687;43.330;21.924;2024-01-16T06:41:22;7.70;;;4.30;;
52816;SDS011;38687;43.330;21.924;2024-01-16T06:43:47;13.82;;;6.32;;
52816;SDS011;38687;43.330;21.924;2024-01-16T06:46:13;12.27;;;6.10;;
52816;SDS011;38687;43.330;21.924;2024-01-16T06:48:38;30.20;;;14.25;;
52816;SDS011;38687;43.330;21.924;2024-01-16T06:51:04;13.05;;;5.90;;
52816;SDS011;38687;43.330;21.924;2024-01-16T06:53:30;10.32;;;5.43;;
52816;SDS011;38687;43.330;21.924;2024-01-16T06:55:55;13.07;;;5.55;;
52816;SDS011;38687;43.330;21.924;2024-01-16T06:58:21;8.93;;;4.53;;
52816;SDS011;38687;43.330;21.924;2024-01-16T07:00:46;9.45;;;4.97;;
52816;SDS011;38687;43.330;21.924;2024-01-16T07:03:12;8.63;;;6.55;;
52816;SDS011;38687;43.330;21.924;2024-01-16T07:05:38;8.52;;;4.43;;
52816;SDS011;38687;43.330;21.924;2024-01-16T07:08:06;9.15;;;5.13;;
52816;SDS011;38687;43.330;21.924;2024-01-16T07:10:31;7.38;;;3.80;;
52816;SDS011;38687;43.330;21.924;2024-01-16T07:12:57;12.60;;;6.85;;
52816;SDS011;38687;43.330;21.924;2024-01-16T07:15:22;10.48;;;5.82;;
52816;SDS011;38687;43.330;21.924;2024-01-16T07:17:48;7.75;;;4.03;;
52816;SDS011;38687;43.330;21.924;2024-01-16T07:20:13;23.35;;;18.23;;
52816;SDS011;38687;43.330;21.924;2024-01-16T07:22:39;6.80;;;3.80;;
52816;SDS011;38687;43.330;21.924;2024-01-16T07:25:05;4.60;;;3.13;;
52816;SDS011;38687;43.330;21.924;2024-01-16T07:27:31;6.40;;;4.45;;
52816;SDS011;38687;43.330;21.924;2024-01-16T07:29:56;3.58;;;3.15;;
52816;SDS011;38687;43.330;21.924;2024-01-16T07:32:22;6.63;;;4.47;;
52816;SDS011;38687;43.330;21.924;2024-01-16T07:34:47;9.77;;;5.80;;
52816;SDS011;38687;43.330;21.924;2024-01-16T07:37:13;10.18;;;5.85;;
52816;SDS011;38687;43.330;21.924;2024-01-16T07:39:39;10.98;;;5.03;;
52816;SDS011;38687;43.330;21.924;2024-01-16T07:42:04;8.52;;;5.03;;
52816;SDS011;38687;43.330;21.924;2024-01-16T07:44:29;9.85;;;6.30;;
52816;SDS011;38687;43.330;21.924;2024-01-16T07:46:55;13.32;;;7.97;;
52816;SDS011;38687;43.330;21.924;2024-01-16T07:49:20;24.35;;;13.68;;
52816;SDS011;38687;43.330;21.924;2024-01-16T07:51:46;31.75;;;15.13;;
52816;SDS011;38687;43.330;21.924;2024-01-16T07:54:11;41.67;;;19.55;;
52816;SDS011;38687;43.330;21.924;2024-01-16T07:56:38;28.13;;;15.23;;
52816;SDS011;38687;43.330;21.924;2024-01-16T07:59:03;31.58;;;15.98;;
52816;SDS011;38687;43.330;21.924;2024-01-16T08:01:29;29.60;;;13.23;;
52816;SDS011;38687;43.330;21.924;2024-01-16T08:03:55;22.92;;;10.80;;
52816;SDS011;38687;43.330;21.924;2024-01-16T08:06:21;23.17;;;11.43;;
52816;SDS011;38687;43.330;21.924;2024-01-16T08:08:47;12.05;;;8.25;;
52816;SDS011;38687;43.330;21.924;2024-01-16T08:11:13;37.53;;;15.98;;
52816;SDS011;38687;43.330;21.924;2024-01-16T08:13:39;21.77;;;10.93;;
52816;SDS011;38687;43.330;21.924;2024-01-16T08:16:04;62.72;;;27.25;;
52816;SDS011;38687;43.330;21.924;2024-01-16T08:18:30;28.17;;;12.45;;
52816;SDS011;38687;43.330;21.924;2024-01-16T08:20:58;30.02;;;14.98;;
52816;SDS011;38687;43.330;21.924;2024-01-16T08:23:24;91.38;;;36.90;;
52816;SDS011;38687;43.330;21.924;2024-01-16T08:25:49;21.20;;;12.63;;
52816;SDS011;38687;43.330;21.924;2024-01-16T08:28:16;75.53;;;29.83;;
52816;SDS011;38687;43.330;21.924;2024-01-16T08:30:42;32.05;;;14.48;;
52816;SDS011;38687;43.330;21.924;2024-01-16T08:33:07;15.35;;;10.88;;
52816;SDS011;38687;43.330;21.924;2024-01-16T08:35:33;45.03;;;19.23;;
52816;SDS011;38687;43.330;21.924;2024-01-16T08:37:58;78.70;;;30.38;;
52816;SDS011;38687;43.330;21.924;2024-01-16T08:40:24;8.27;;;5.22;;
52816;SDS011;38687;43.330;21.924;2024-01-16T08:42:49;11.15;;;5.80;;
52816;SDS011;38687;43.330;21.924;2024-01-16T08:45:19;54.47;;;26.73;;
52816;SDS011;38687;43.330;21.924;2024-01-16T08:47:48;19.40;;;10.10;;
52816;SDS011;38687;43.330;21.924;2024-01-16T08:50:14;20.70;;;11.18;;
52816;SDS011;38687;43.330;21.924;2024-01-16T08:52:40;21.75;;;8.98;;
52816;SDS011;38687;43.330;21.924;2024-01-16T08:55:05;20.80;;;9.07;;
52816;SDS011;38687;43.330;21.924;2024-01-16T08:57:31;32.60;;;14.00;;
52816;SDS011;38687;43.330;21.924;2024-01-16T08:59:56;38.38;;;17.73;;
52816;SDS011;38687;43.330;21.924;2024-01-16T09:02:22;22.92;;;12.18;;
52816;SDS011;38687;43.330;21.924;2024-01-16T09:04:49;17.08;;;9.30;;
52816;SDS011;38687;43.330;21.924;2024-01-16T09:07:16;14.43;;;10.57;;
52816;SDS011;38687;43.330;21.924;2024-01-16T09:09:42;12.68;;;7.43;;
52816;SDS011;38687;43.330;21.924;2024-01-16T09:12:10;11.13;;;6.35;;
52816;SDS011;38687;43.330;21.924;2024-01-16T09:14:36;7.45;;;4.18;;
52816;SDS011;38687;43.330;21.924;2024-01-16T09:17:01;7.70;;;3.83;;
52816;SDS011;38687;43.330;21.924;2024-01-16T09:19:28;5.40;;;3.60;;
52816;SDS011;38687;43.330;21.924;2024-01-16T09:21:54;6.72;;;4.93;;
52816;SDS011;38687;43.330;21.924;2024-01-16T09:24:20;6.63;;;4.47;;
52816;SDS011;38687;43.330;21.924;2024-01-16T09:26:45;9.52;;;4.80;;
52816;SDS011;38687;43.330;21.924;2024-01-16T09:29:10;5.82;;;3.17;;
52816;SDS011;38687;43.330;21.924;2024-01-16T09:31:36;12.45;;;5.95;;
52816;SDS011;38687;43.330;21.924;2024-01-16T09:34:02;6.15;;;3.90;;
52816;SDS011;38687;43.330;21.924;2024-01-16T09:36:28;6.63;;;4.47;;
52816;SDS011;38687;43.330;21.924;2024-01-16T09:38:54;5.35;;;4.13;;
52816;SDS011;38687;43.330;21.924;2024-01-16T09:41:19;3.53;;;2.50;;
52816;SDS011;38687;43.330;21.924;2024-01-16T09:43:45;11.63;;;4.40;;
52816;SDS011;38687;43.330;21.924;2024-01-16T09:46:11;3.00;;;2.30;;
52816;SDS011;38687;43.330;21.924;2024-01-16T09:48:37;7.28;;;3.53;;
52816;SDS011;38687;43.330;21.924;2024-01-16T09:51:03;15.57;;;8.38;;
52816;SDS011;38687;43.330;21.924;2024-01-16T09:53:29;7.07;;;5.20;;
52816;SDS011;38687;43.330;21.924;2024-01-16T09:55:54;8.85;;;4.15;;
52816;SDS011;38687;43.330;21.924;2024-01-16T09:58:26;8.23;;;4.75;;
52816;SDS011;38687;43.330;21.924;2024-01-16T10:00:53;8.70;;;3.88;;
52816;SDS011;38687;43.330;21.924;2024-01-16T10:03:19;5.85;;;3.55;;
52816;SDS011;38687;43.330;21.924;2024-01-16T10:05:46;26.42;;;8.85;;
52816;SDS011;38687;43.330;21.924;2024-01-16T10:08:13;14.15;;;8.55;;
52816;SDS011;38687;43.330;21.924;2024-01-16T10:10:39;13.13;;;7.25;;
52816;SDS011;38687;43.330;21.924;2024-01-16T10:13:04;16.30;;;7.80;;
52816;SDS011;38687;43.330;21.924;2024-01-16T10:15:31;7.40;;;5.50;;
52816;SDS011;38687;43.330;21.924;2024-01-16T10:17:56;25.02;;;10.48;;
52816;SDS011;38687;43.330;21.924;2024-01-16T10:20:31;18.15;;;9.57;;
52816;SDS011;38687;43.330;21.924;2024-01-16T10:25:24;19.20;;;8.27;;
52816;SDS011;38687;43.330;21.924;2024-01-16T10:27:49;14.52;;;7.70;;
52816;SDS011;38687;43.330;21.924;2024-01-16T10:30:28;19.80;;;11.18;;
52816;SDS011;38687;43.330;21.924;2024-01-16T10:32:53;7.85;;;6.28;;
52816;SDS011;38687;43.330;21.924;2024-01-16T10:35:18;3.85;;;2.22;;
52816;SDS011;38687;43.330;21.924;2024-01-16T10:40:14;9.55;;;5.32;;
52816;SDS011;38687;43.330;21.924;2024-01-16T10:45:29;21.92;;;9.02;;
52816;SDS011;38687;43.330;21.924;2024-01-16T10:48:01;17.10;;;9.00;;
52816;SDS011;38687;43.330;21.924;2024-01-16T10:50:28;34.63;;;16.77;;
52816;SDS011;38687;43.330;21.924;2024-01-16T10:52:54;13.93;;;6.40;;
52816;SDS011;38687;43.330;21.924;2024-01-16T10:55:22;13.45;;;7.13;;
52816;SDS011;38687;43.330;21.924;2024-01-16T10:57:49;7.15;;;4.45;;
52816;SDS011;38687;43.330;21.924;2024-01-16T11:00:18;9.10;;;4.85;;
52816;SDS011;38687;43.330;21.924;2024-01-16T11:02:58;4.47;;;3.58;;
52816;SDS011;38687;43.330;21.924;2024-01-16T11:05:24;8.13;;;4.90;;
52816;SDS011;38687;43.330;21.924;2024-01-16T11:07:50;9.32;;;6.35;;
52816;SDS011;38687;43.330;21.924;2024-01-16T11:10:19;6.03;;;4.15;;
52816;SDS011;38687;43.330;21.924;2024-01-16T11:12:45;7.57;;;4.40;;
52816;SDS011;38687;43.330;21.924;2024-01-16T11:15:10;6.60;;;3.67;;
52816;SDS011;38687;43.330;21.924;2024-01-16T11:17:37;59.53;;;21.88;;
52816;SDS011;38687;43.330;21.924;2024-01-16T11:20:04;3.63;;;2.78;;
52816;SDS011;38687;43.330;21.924;2024-01-16T11:22:35;6.95;;;5.38;;
52816;SDS011;38687;43.330;21.924;2024-01-16T11:27:42;10.13;;;6.68;;
52816;SDS011;38687;43.330;21.924;2024-01-16T11:30:08;13.48;;;7.50;;
52816;SDS011;38687;43.330;21.924;2024-01-16T11:32:42;6.00;;;4.38;;
52816;SDS011;38687;43.330;21.924;2024-01-16T11:35:08;28.75;;;14.77;;
52816;SDS011;38687;43.330;21.924;2024-01-16T11:37:33;26.95;;;10.02;;
52816;SDS011;38687;43.330;21.924;2024-01-16T11:42:42;34.50;;;14.35;;
52816;SDS011;38687;43.330;21.924;2024-01-16T11:45:08;19.80;;;9.32;;
52816;SDS011;38687;43.330;21.924;2024-01-16T11:50:36;10.85;;;4.88;;
52816;SDS011;38687;43.330;21.924;2024-01-16T11:53:02;9.80;;;5.45;;
52816;SDS011;38687;43.330;21.924;2024-01-16T11:55:39;4.47;;;2.58;;
52816;SDS011;38687;43.330;21.924;2024-01-16T12:01:07;4.88;;;3.53;;
52816;SDS011;38687;43.330;21.924;2024-01-16T12:03:33;5.68;;;2.85;;
52816;SDS011;38687;43.330;21.924;2024-01-16T12:05:59;4.25;;;2.60;;
52816;SDS011;38687;43.330;21.924;2024-01-16T12:08:25;5.40;;;2.80;;
52816;SDS011;38687;43.330;21.924;2024-01-16T12:10:51;4.82;;;3.53;;
52816;SDS011;38687;43.330;21.924;2024-01-16T12:13:16;6.15;;;3.58;;
52816;SDS011;38687;43.330;21.924;2024-01-16T12:15:42;3.20;;;2.53;;
52816;SDS011;38687;43.330;21.924;2024-01-16T12:18:07;7.47;;;3.05;;
52816;SDS011;38687;43.330;21.924;2024-01-16T12:20:34;3.88;;;2.80;;
52816;SDS011;38687;43.330;21.924;2024-01-16T12:25:29;4.97;;;4.28;;
52816;SDS011;38687;43.330;21.924;2024-01-16T12:28:05;8.80;;;4.72;;
52816;SDS011;38687;43.330;21.924;2024-01-16T12:30:33;6.45;;;4.88;;
52816;SDS011;38687;43.330;21.924;2024-01-16T12:33:12;29.48;;;10.30;;
52816;SDS011;38687;43.330;21.924;2024-01-16T12:35:39;32.70;;;9.25;;
52816;SDS011;38687;43.330;21.924;2024-01-16T12:38:08;16.20;;;6.70;;
52816;SDS011;38687;43.330;21.924;2024-01-16T12:40:35;12.95;;;6.05;;
52816;SDS011;38687;43.330;21.924;2024-01-16T12:43:03;12.93;;;5.35;;
52816;SDS011;38687;43.330;21.924;2024-01-16T12:45:29;6.97;;;3.95;;
52816;SDS011;38687;43.330;21.924;2024-01-16T12:47:56;13.30;;;6.05;;
52816;SDS011;38687;43.330;21.924;2024-01-16T12:50:25;13.93;;;7.82;;
52816;SDS011;38687;43.330;21.924;2024-01-16T12:53:05;17.95;;;8.13;;
52816;SDS011;38687;43.330;21.924;2024-01-16T12:55:35;15.23;;;7.32;;
52816;SDS011;38687;43.330;21.924;2024-01-16T12:58:20;4.47;;;3.15;;
52816;SDS011;38687;43.330;21.924;2024-01-16T13:00:49;21.65;;;9.20;;
52816;SDS011;38687;43.330;21.924;2024-01-16T13:03:16;40.72;;;14.75;;
52816;SDS011;38687;43.330;21.924;2024-01-16T13:05:43;8.82;;;4.20;;
52816;SDS011;38687;43.330;21.924;2024-01-16T13:08:09;6.97;;;3.67;;
52816;SDS011;38687;43.330;21.924;2024-01-16T13:10:34;11.52;;;5.97;;
52816;SDS011;38687;43.330;21.924;2024-01-16T13:13:21;4.10;;;2.95;;
52816;SDS011;38687;43.330;21.924;2024-01-16T13:15:47;7.45;;;4.10;;
52816;SDS011;38687;43.330;21.924;2024-01-16T13:20:48;41.20;;;21.20;;
52816;SDS011;38687;43.330;21.924;2024-01-16T13:23:14;15.10;;;7.63;;
52816;SDS011;38687;43.330;21.924;2024-01-16T13:25:41;6.38;;;4.72;;
52816;SDS011;38687;43.330;21.924;2024-01-16T13:28:08;8.63;;;5.78;;
52816;SDS011;38687;43.330;21.924;2024-01-16T13:30:33;9.23;;;4.18;;
52816;SDS011;38687;43.330;21.924;2024-01-16T13:32:59;4.47;;;2.92;;
52816;SDS011;38687;43.330;21.924;2024-01-16T13:35:24;1.00;;;0.82;;
52816;SDS011;38687;43.330;21.924;2024-01-16T13:37:49;23.13;;;10.52;;
52816;SDS011;38687;43.330;21.924;2024-01-16T13:40:15;8.82;;;7.13;;
52816;SDS011;38687;43.330;21.924;2024-01-16T13:42:44;13.63;;;6.80;;
52816;SDS011;38687;43.330;21.924;2024-01-16T13:45:10;9.13;;;5.30;;
52816;SDS011;38687;43.330;21.924;2024-01-16T13:47:38;9.07;;;5.47;;
52816;SDS011;38687;43.330;21.924;2024-01-16T13:50:05;15.50;;;9.35;;
52816;SDS011;38687;43.330;21.924;2024-01-16T13:52:31;7.18;;;3.80;;
52816;SDS011;38687;43.330;21.924;2024-01-16T13:54:57;3.80;;;3.42;;
52816;SDS011;38687;43.330;21.924;2024-01-16T13:57:22;21.10;;;11.32;;
52816;SDS011;38687;43.330;21.924;2024-01-16T13:59:48;6.43;;;4.57;;
52816;SDS011;38687;43.330;21.924;2024-01-16T14:02:14;6.72;;;3.60;;
52816;SDS011;38687;43.330;21.924;2024-01-16T14:04:39;9.77;;;5.85;;
52816;SDS011;38687;43.330;21.924;2024-01-16T14:07:05;11.15;;;6.18;;
52816;SDS011;38687;43.330;21.924;2024-01-16T14:09:34;7.68;;;5.47;;
52816;SDS011;38687;43.330;21.924;2024-01-16T14:12:01;3.53;;;2.40;;
52816;SDS011;38687;43.330;21.924;2024-01-16T14:14:26;7.28;;;3.80;;
52816;SDS011;38687;43.330;21.924;2024-01-16T14:16:52;5.07;;;4.00;;
52816;SDS011;38687;43.330;21.924;2024-01-16T14:19:19;6.75;;;3.15;;
52816;SDS011;38687;43.330;21.924;2024-01-16T14:21:47;4.90;;;3.05;;
52816;SDS011;38687;43.330;21.924;2024-01-16T14:24:13;3.72;;;2.22;;
52816;SDS011;38687;43.330;21.924;2024-01-16T14:26:38;6.15;;;3.00;;
52816;SDS011;38687;43.330;21.924;2024-01-16T14:29:09;9.02;;;4.15;;
52816;SDS011;38687;43.330;21.924;2024-01-16T14:31:34;4.53;;;3.03;;
52816;SDS011;38687;43.330;21.924;2024-01-16T14:34:01;8.18;;;5.00;;
52816;SDS011;38687;43.330;21.924;2024-01-16T14:36:27;7.40;;;3.85;;
52816;SDS011;38687;43.330;21.924;2024-01-16T14:38:52;5.32;;;3.38;;
52816;SDS011;38687;43.330;21.924;2024-01-16T14:41:17;6.20;;;3.63;;
52816;SDS011;38687;43.330;21.924;2024-01-16T14:43:44;5.88;;;3.58;;
52816;SDS011;38687;43.330;21.924;2024-01-16T14:46:09;7.95;;;3.45;;
52816;SDS011;38687;43.330;21.924;2024-01-16T14:48:43;9.80;;;3.88;;